Airfield :
LOGIN :

Register | Disclaimer

   EN    FR    IT 

 










Legend :    VFR   Marginal VFR   IFR   Intensive IFR   Very Intensive IFR
Visi :
Ceiling :
>= 8 km
>= 3000ft
5 to 8 km
1000 to 3000 ft
1500m to 5 km
500 to 1000 ft
800 to 1500m
200 to 500 ft
< 800m
< 200 ft
Symbols :   Thunderstorms  Fog  Heavy snow  Heavy precipitations  Wind > 20 kt
SIGMETs :     Misc.  Thunderstorms  Icing  Turbulence  Mountain Waves  Volcanic Ashes







- Airport Elevation : 433 ft
- IATA code : CCF
- Download approach charts


LFMK - Carcassonne

CURRENT METAR :
  • 280330Z AUTO 26005KT 240V300 9999 FEW015 SCT130 OVC220 17/16 Q1006 BECMG SCT018TCU BKN020

EXPIRED METARs :
  • 280300Z AUTO 26005KT 9999 BKN016 BKN022 18/17 Q1006 BECMG SCT018TCU BKN020
  • 280230Z AUTO 25003KT 210V280 9999 SCT018 SCT030 BKN220 17/16 Q1006
  • 280200Z AUTO 27004KT 240V300 9999 FEW020 OVC240 17/16 Q1006
  • 280130Z AUTO 27005KT 240V300 CAVOK 17/16 Q1007
  • 280100Z AUTO 25004KT 200V290 CAVOK 17/17 Q1007

TAF TAF LFMK
Valid from the 28 at 03:00 until the 29 at 03:00 UTC


280200Z 2803/2903 28012KT 9999 SCT018TCU BKN020
TEMPO 2806/2812 4000 SHRA BR BKN020TCU
BECMG 2812/2814 SCT040
TEMPO 2814/2820 VRB30G50KT 1500 TSRA BR BKN030CB
No reported NOTAMs for that airfield.



MET'MAP, your aeronautical weather chart ! - Copyright ORBIFLY December 2007 - Disclaimer

ORBIFLY MET'MAP TEAM :

Programming & Development : Alexandra Zaïnal
Concept & Development : Baudouin d'Aumeries
Co-Development & Prog : Marc-Olivier Méhu
Technical & hardware support : Manuel Goepfert

Contact : metmap@orbifly.com




SOURCES & CREDITS :

   NOAA